Time;durP1;ratioP1;P1;durP2;ratioP2;P2;SDS_P1;SDS_P2;PMS_P1;PMS_P2;Temp;Humidity;BMP_temperature;BMP_pressure;BME280_temperature;BME280_humidity;BME280_pressure;Samples;Min_cycle;Max_cycle;Signal;HPM_P1;HPM_P2
2022/11/18 00:00:35;;;;;;;;;;;19.80;84.70;;;;;;5021675;28;19966;-66
2022/11/18 00:03:02;;;;;;;;;;;20.10;85.30;;;;;;5020674;28;19956;-66
2022/11/18 00:05:29;;;;;;;;;;;20.30;85.10;;;;;;5021142;28;20302;-66
2022/11/18 00:07:55;;;;;;;;;;;20.40;84.60;;;;;;5035437;28;19909;-66
2022/11/18 00:10:22;;;;;;;;;;;20.30;84.90;;;;;;5040055;28;20365;-66
2022/11/18 00:15:33;;;;;;;;;;;20.80;84.60;;;;;;5020997;28;19925;-67
2022/11/18 00:18:00;;;;;;;;;;;21.00;83.10;;;;;;5024126;28;19909;-67
2022/11/18 00:20:26;;;;;;;;;;;21.10;82.50;;;;;;5002366;28;20844;-65
2022/11/18 00:22:53;;;;;;;;;;;21.20;81.60;;;;;;5021162;28;19917;-66
2022/11/18 00:25:19;;;;;;;;;;;21.40;80.80;;;;;;5018788;28;19956;-65
2022/11/18 00:27:46;;;;;;;;;;;21.70;80.40;;;;;;5024833;28;19940;-63
2022/11/18 00:30:13;;;;;;;;;;;21.80;81.20;;;;;;5022176;28;20003;-68
2022/11/18 00:32:39;;;;;;;;;;;22.00;80.00;;;;;;5041173;28;19909;-69
2022/11/18 00:35:06;;;;;;;;;;;22.00;79.70;;;;;;5039765;28;19932;-67
2022/11/18 00:37:33;;;;;;;;;;;21.90;79.20;;;;;;5040139;28;19968;-68
2022/11/18 00:39:59;;;;;;;;;;;21.90;79.90;;;;;;5039490;28;20447;-65
2022/11/18 00:45:11;;;;;;;;;;;21.90;80.80;;;;;;5019746;28;19917;-66
2022/11/18 00:47:37;;;;;;;;;;;22.10;80.30;;;;;;5032095;28;19958;-68
2022/11/18 00:50:04;;;;;;;;;;;22.10;80.00;;;;;;5027397;28;19917;-67
2022/11/18 00:52:31;;;;;;;;;;;22.20;80.40;;;;;;5000073;28;19913;-68
2022/11/18 00:54:57;;;;;;;;;;;22.30;80.90;;;;;;5020963;28;19955;-66
2022/11/18 00:57:24;;;;;;;;;;;22.40;81.30;;;;;;5029240;28;19913;-66
2022/11/18 00:59:50;;;;;;;;;;;22.50;80.20;;;;;;5022409;28;19909;-67
2022/11/18 01:02:17;;;;;;;;;;;22.70;79.70;;;;;;5018428;28;19927;-67
2022/11/18 01:04:44;;;;;;;;;;;22.80;79.30;;;;;;5019492;28;20009;-67
2022/11/18 01:07:10;;;;;;;;;;;22.90;81.00;;;;;;5028284;28;19927;-69
2022/11/18 01:09:37;;;;;;;;;;;23.10;79.60;;;;;;5018184;28;20350;-70
2022/11/18 01:14:48;;;;;;;;;;;23.00;80.20;;;;;;5015132;28;20020;-67
2022/11/18 01:17:15;;;;;;;;;;;22.90;79.40;;;;;;5028489;28;20404;-68
2022/11/18 01:19:41;;;;;;;;;;;23.00;79.70;;;;;;5038366;28;20531;-65
2022/11/18 01:22:08;;;;;;;;;;;23.10;77.60;;;;;;5040013;28;19956;-66
2022/11/18 01:24:34;;;;;;;;;;;22.80;78.60;;;;;;5037837;28;19944;-65
2022/11/18 01:27:01;;;;;;;;;;;22.70;78.70;;;;;;5039928;28;20305;-68
2022/11/18 01:29:28;;;;;;;;;;;22.80;80.80;;;;;;5030165;28;19913;-66
2022/11/18 01:31:55;;;;;;;;;;;23.00;79.80;;;;;;5018993;28;19909;-67
2022/11/18 01:34:21;;;;;;;;;;;23.00;78.30;;;;;;5018926;28;19909;-65
2022/11/18 01:36:51;;;;;;;;;;;22.90;76.90;;;;;;5005088;28;19923;-68
2022/11/18 01:39:17;;;;;;;;;;;22.50;78.60;;;;;;5016846;28;19909;-66
2022/11/18 01:41:44;;;;;;;;;;;22.30;77.80;;;;;;5018877;28;20965;-69
2022/11/18 01:44:29;;;;;;;;;;;22.10;79.60;;;;;;5018058;28;19924;-68
2022/11/18 01:46:55;;;;;;;;;;;22.30;77.80;;;;;;5023774;28;20396;-69
2022/11/18 01:49:22;;;;;;;;;;;22.70;77.60;;;;;;5026539;28;19928;-68
2022/11/18 01:51:54;;;;;;;;;;;22.70;76.20;;;;;;5017822;28;20338;-68
2022/11/18 01:54:32;;;;;;;;;;;22.80;76.70;;;;;;5019939;28;19955;-68
2022/11/18 01:57:00;;;;;;;;;;;22.90;77.00;;;;;;5025118;28;19909;-69
2022/11/18 01:59:30;;;;;;;;;;;23.20;75.40;;;;;;5038543;28;19986;-67
2022/11/18 02:04:49;;;;;;;;;;;23.30;74.20;;;;;;5039792;28;19919;-67
2022/11/18 02:07:16;;;;;;;;;;;23.50;73.10;;;;;;5023902;28;19928;-70
2022/11/18 02:09:43;;;;;;;;;;;23.90;74.50;;;;;;5016933;28;20358;-69
2022/11/18 02:12:11;;;;;;;;;;;24.20;72.30;;;;;;5018964;28;19971;-70
2022/11/18 02:14:39;;;;;;;;;;;24.40;71.00;;;;;;5017827;28;19920;-69
2022/11/18 02:17:06;;;;;;;;;;;24.70;73.10;;;;;;5021228;28;19913;-69
2022/11/18 02:19:48;;;;;;;;;;;24.70;72.40;;;;;;5018679;28;20017;-70
2022/11/18 02:22:24;;;;;;;;;;;24.40;71.50;;;;;;5014278;28;20001;-68
2022/11/18 02:25:05;;;;;;;;;;;24.00;74.20;;;;;;5018243;28;19919;-70
2022/11/18 02:27:57;;;;;;;;;;;23.90;75.10;;;;;;5029182;28;19921;-70
2022/11/18 02:30:24;;;;;;;;;;;24.10;74.20;;;;;;5038956;28;20003;-68
2022/11/18 02:32:57;;;;;;;;;;;24.50;74.10;;;;;;5019619;28;19975;-71
2022/11/18 02:35:27;;;;;;;;;;;24.70;73.00;;;;;;5018675;28;19913;-65
2022/11/18 02:37:56;;;;;;;;;;;25.00;73.00;;;;;;5031392;28;19962;-68
2022/11/18 02:40:31;;;;;;;;;;;25.10;71.80;;;;;;5013725;28;19963;-65
2022/11/18 02:43:05;;;;;;;;;;;25.50;73.10;;;;;;5018860;28;19909;-65
2022/11/18 02:45:32;;;;;;;;;;;26.20;71.90;;;;;;5018434;28;20403;-66
2022/11/18 02:48:05;;;;;;;;;;;27.00;70.30;;;;;;5019163;28;20704;-68
2022/11/18 02:50:34;;;;;;;;;;;27.90;68.10;;;;;;5018127;28;19913;-67
2022/11/18 02:53:02;;;;;;;;;;;28.50;67.30;;;;;;5019143;28;19909;-68
2022/11/18 02:55:31;;;;;;;;;;;28.80;66.50;;;;;;5017358;28;19921;-66
2022/11/18 02:57:58;;;;;;;;;;;29.60;65.70;;;;;;5023583;28;19954;-66
2022/11/18 03:00:24;;;;;;;;;;;29.90;64.00;;;;;;5018509;28;19909;-65
2022/11/18 03:02:51;;;;;;;;;;;29.10;63.00;;;;;;5017459;28;19910;-67
2022/11/18 03:05:32;;;;;;;;;;;28.50;63.20;;;;;;5018481;28;19913;-65
2022/11/18 03:08:02;;;;;;;;;;;27.40;64.30;;;;;;5032262;28;19913;-66
2022/11/18 03:10:31;;;;;;;;;;;27.20;66.90;;;;;;5029476;28;19913;-65
2022/11/18 03:13:07;;;;;;;;;;;28.10;65.80;;;;;;5018074;28;19917;-66
2022/11/18 03:15:44;;;;;;;;;;;29.20;62.20;;;;;;5017774;28;19909;-66
2022/11/18 03:18:28;;;;;;;;;;;30.50;61.30;;;;;;5032347;28;19954;-67
2022/11/18 03:21:02;;;;;;;;;;;31.20;60.20;;;;;;4998244;28;19910;-65
2022/11/18 03:23:28;;;;;;;;;;;31.40;58.60;;;;;;5013542;28;19958;-65
2022/11/18 03:26:00;;;;;;;;;;;31.40;59.70;;;;;;5018282;28;20266;-67
2022/11/18 03:28:30;;;;;;;;;;;31.40;58.50;;;;;;5026886;28;20389;-69
2022/11/18 03:31:02;;;;;;;;;;;31.60;58.20;;;;;;5020666;28;20000;-64
2022/11/18 03:33:35;;;;;;;;;;;32.30;57.30;;;;;;5020440;28;19909;-66
2022/11/18 03:36:04;;;;;;;;;;;32.80;57.20;;;;;;5022067;28;19913;-70
2022/11/18 03:38:33;;;;;;;;;;;33.60;55.40;;;;;;5021937;28;19920;-65
2022/11/18 03:41:02;;;;;;;;;;;33.60;55.90;;;;;;5030319;28;19931;-65
2022/11/18 03:43:33;;;;;;;;;;;33.50;56.30;;;;;;5020659;28;19916;-66
2022/11/18 03:46:03;;;;;;;;;;;33.80;56.20;;;;;;5021355;28;19927;-66
2022/11/18 03:48:33;;;;;;;;;;;33.90;55.50;;;;;;5022903;28;19952;-66
2022/11/18 03:51:01;;;;;;;;;;;34.20;56.60;;;;;;5021323;28;19913;-66
2022/11/18 03:53:32;;;;;;;;;;;34.60;55.70;;;;;;5020107;28;20237;-66
2022/11/18 03:56:01;;;;;;;;;;;34.70;55.70;;;;;;5016703;28;19921;-65
2022/11/18 03:58:31;;;;;;;;;;;34.10;56.00;;;;;;5022446;28;20011;-67
2022/11/18 04:01:03;;;;;;;;;;;33.90;55.40;;;;;;5021023;28;19913;-66
2022/11/18 04:03:30;;;;;;;;;;;34.10;54.40;;;;;;5018196;28;19913;-68
2022/11/18 04:06:02;;;;;;;;;;;34.70;54.40;;;;;;5021221;28;19967;-68
2022/11/18 04:08:33;;;;;;;;;;;35.10;53.30;;;;;;5031072;28;19913;-66
2022/11/18 04:12:01;;;;;;;;;;;34.80;53.10;;;;;;5021434;28;19944;-69
2022/11/18 04:14:00;;;;;;;;;;;34.90;53.90;;;;;;5020312;28;20290;-69
2022/11/18 04:16:26;;;;;;;;;;;34.80;52.40;;;;;;5022413;28;19945;-66
2022/11/18 04:18:53;;;;;;;;;;;34.50;53.00;;;;;;5021384;28;20274;-66
2022/11/18 04:21:19;;;;;;;;;;;34.70;52.60;;;;;;5018679;28;19913;-65
2022/11/18 04:23:46;;;;;;;;;;;33.90;53.90;;;;;;5018068;28;19963;-69
2022/11/18 04:26:13;;;;;;;;;;;34.40;53.60;;;;;;5019686;28;19921;-66
2022/11/18 04:28:39;;;;;;;;;;;34.70;53.30;;;;;;4999926;28;19910;-67
2022/11/18 04:31:06;;;;;;;;;;;34.60;53.00;;;;;;5019474;28;19913;-66
2022/11/18 04:33:32;;;;;;;;;;;35.00;53.60;;;;;;5019295;28;20289;-67
2022/11/18 04:35:59;;;;;;;;;;;35.10;52.60;;;;;;5017602;28;19921;-66
2022/11/18 04:38:26;;;;;;;;;;;35.30;52.10;;;;;;5020752;28;19916;-66
2022/11/18 04:40:52;;;;;;;;;;;35.20;52.10;;;;;;5016867;28;19925;-66
2022/11/18 04:43:19;;;;;;;;;;;35.40;52.00;;;;;;5018673;28;19913;-66
2022/11/18 04:45:49;;;;;;;;;;;35.30;52.40;;;;;;5017971;28;20457;-67
2022/11/18 04:48:16;;;;;;;;;;;34.40;52.90;;;;;;5020893;28;19913;-67
2022/11/18 04:50:42;;;;;;;;;;;34.30;53.20;;;;;;5018997;28;20574;-68
2022/11/18 04:53:09;;;;;;;;;;;34.40;53.70;;;;;;5025065;28;19913;-71
2022/11/18 04:55:36;;;;;;;;;;;34.40;52.60;;;;;;5018632;28;19913;-67
2022/11/18 04:58:06;;;;;;;;;;;34.60;52.30;;;;;;5019622;28;19963;-67
2022/11/18 05:00:32;;;;;;;;;;;34.30;52.50;;;;;;5019320;28;19917;-67
2022/11/18 05:02:59;;;;;;;;;;;34.30;53.00;;;;;;5019228;28;19913;-68
2022/11/18 05:05:25;;;;;;;;;;;35.00;53.80;;;;;;5018561;28;19920;-66
2022/11/18 05:07:52;;;;;;;;;;;35.00;52.40;;;;;;5019066;28;19917;-67
2022/11/18 05:10:19;;;;;;;;;;;34.70;52.50;;;;;;5020125;28;19909;-68
2022/11/18 05:12:48;;;;;;;;;;;34.80;52.80;;;;;;5017896;28;20423;-66
2022/11/18 05:15:16;;;;;;;;;;;35.10;53.00;;;;;;5019118;28;19963;-66
2022/11/18 05:17:42;;;;;;;;;;;35.10;52.80;;;;;;5021764;28;20012;-65
2022/11/18 05:20:10;;;;;;;;;;;34.70;53.50;;;;;;5019365;28;19952;-66
2022/11/18 05:22:36;;;;;;;;;;;33.90;53.20;;;;;;5018829;28;19955;-68
2022/11/18 05:25:04;;;;;;;;;;;33.70;54.50;;;;;;5025138;28;19913;-67
2022/11/18 05:27:30;;;;;;;;;;;33.70;54.00;;;;;;5033028;28;19928;-66
2022/11/18 05:29:57;;;;;;;;;;;34.00;53.10;;;;;;5020916;28;19956;-66
2022/11/18 05:32:24;;;;;;;;;;;34.10;52.60;;;;;;5019330;28;19952;-66
2022/11/18 05:34:50;;;;;;;;;;;33.80;54.80;;;;;;5018067;28;19909;-66
2022/11/18 05:37:17;;;;;;;;;;;34.00;54.30;;;;;;5022482;28;19913;-67
2022/11/18 05:39:44;;;;;;;;;;;34.00;54.90;;;;;;5016402;28;20374;-66
2022/11/18 05:44:56;;;;;;;;;;;33.10;54.10;;;;;;5018184;28;19920;-66
2022/11/18 05:47:24;;;;;;;;;;;32.30;55.70;;;;;;5027795;28;19917;-67
2022/11/18 05:49:50;;;;;;;;;;;32.50;55.40;;;;;;5030270;28;20371;-72
2022/11/18 05:52:17;;;;;;;;;;;32.20;54.80;;;;;;5016621;28;20498;-65
2022/11/18 05:54:48;;;;;;;;;;;31.00;57.10;;;;;;5018908;28;19967;-65
2022/11/18 05:57:15;;;;;;;;;;;30.90;57.90;;;;;;5016456;28;20549;-66
2022/11/18 05:59:41;;;;;;;;;;;30.50;57.70;;;;;;5018198;28;19909;-67
2022/11/18 06:02:15;;;;;;;;;;;29.90;59.40;;;;;;5016522;28;20532;-67
2022/11/18 06:04:42;;;;;;;;;;;29.30;59.60;;;;;;5007518;28;19913;-67
2022/11/18 06:07:13;;;;;;;;;;;28.10;61.70;;;;;;5024389;28;20040;-67
2022/11/18 06:09:41;;;;;;;;;;;27.50;62.90;;;;;;5026528;28;19924;-66
2022/11/18 06:12:08;;;;;;;;;;;26.50;65.30;;;;;;5015765;28;20428;-67
2022/11/18 06:14:39;;;;;;;;;;;26.20;66.60;;;;;;5016832;28;19909;-67
2022/11/18 06:17:09;;;;;;;;;;;25.90;67.90;;;;;;5017339;28;19913;-67
2022/11/18 06:19:36;;;;;;;;;;;25.70;67.80;;;;;;5000891;28;19909;-66
2022/11/18 06:22:03;;;;;;;;;;;25.40;69.50;;;;;;5016506;28;19925;-67
2022/11/18 06:24:29;;;;;;;;;;;25.50;69.40;;;;;;5018843;28;19917;-65
2022/11/18 06:26:57;;;;;;;;;;;25.50;69.90;;;;;;5022644;28;20366;-68
2022/11/18 06:29:24;;;;;;;;;;;25.50;70.30;;;;;;5038229;28;19909;-70
2022/11/18 06:31:51;;;;;;;;;;;25.40;70.20;;;;;;5031934;28;20004;-69
2022/11/18 06:34:17;;;;;;;;;;;25.20;69.60;;;;;;4997276;28;19920;-67
2022/11/18 06:36:44;;;;;;;;;;;24.90;69.80;;;;;;5012151;28;20412;-66
2022/11/18 06:39:11;;;;;;;;;;;24.80;69.60;;;;;;5036036;28;19912;-65
2022/11/18 06:41:37;;;;;;;;;;;24.60;68.40;;;;;;5038604;28;19928;-68
2022/11/18 06:44:04;;;;;;;;;;;24.60;69.70;;;;;;5035722;28;20356;-67
2022/11/18 06:49:15;;;;;;;;;;;24.30;70.90;;;;;;5036423;28;19959;-72
2022/11/18 06:51:41;;;;;;;;;;;24.00;71.80;;;;;;5038620;28;19909;-69
2022/11/18 06:54:14;;;;;;;;;;;23.70;72.50;;;;;;5038297;28;19915;-68
2022/11/18 06:56:41;;;;;;;;;;;23.60;73.40;;;;;;5032643;28;19936;-69
2022/11/18 06:59:08;;;;;;;;;;;23.60;73.20;;;;;;5037878;28;19962;-70
2022/11/18 07:01:35;;;;;;;;;;;23.70;72.80;;;;;;5037961;28;19962;-69
2022/11/18 07:04:02;;;;;;;;;;;23.60;73.20;;;;;;5036389;28;20369;-67
2022/11/18 07:06:30;;;;;;;;;;;23.50;73.50;;;;;;5021672;28;20386;-67
2022/11/18 07:08:57;;;;;;;;;;;23.30;73.50;;;;;;5041869;28;19915;-64
2022/11/18 07:11:24;;;;;;;;;;;23.20;74.10;;;;;;5041248;28;19909;-66
2022/11/18 07:13:51;;;;;;;;;;;23.00;74.70;;;;;;5023685;28;19913;-67
2022/11/18 07:16:18;;;;;;;;;;;22.90;75.20;;;;;;5024235;28;19909;-67
2022/11/18 07:18:46;;;;;;;;;;;22.90;75.00;;;;;;5015763;28;19921;-68
2022/11/18 07:21:14;;;;;;;;;;;22.70;74.50;;;;;;5020431;28;20560;-66
2022/11/18 07:23:41;;;;;;;;;;;22.60;75.20;;;;;;5022237;28;19914;-66
2022/11/18 07:26:08;;;;;;;;;;;22.60;75.30;;;;;;5022603;28;19917;-66
2022/11/18 07:28:35;;;;;;;;;;;22.50;75.60;;;;;;5039107;28;20289;-71
2022/11/18 07:31:02;;;;;;;;;;;22.40;75.20;;;;;;5040699;28;19916;-66
2022/11/18 07:33:29;;;;;;;;;;;22.40;76.20;;;;;;5020228;28;19913;-67
2022/11/18 07:35:59;;;;;;;;;;;22.20;77.70;;;;;;5004008;28;20363;-66
2022/11/18 07:38:26;;;;;;;;;;;22.00;78.20;;;;;;5020247;28;20447;-68
2022/11/18 07:40:52;;;;;;;;;;;21.90;78.40;;;;;;5022503;28;19961;-66
2022/11/18 07:43:19;;;;;;;;;;;21.60;79.00;;;;;;5020468;28;19936;-68
2022/11/18 07:45:45;;;;;;;;;;;21.60;79.10;;;;;;5020178;28;20429;-66
2022/11/18 07:48:12;;;;;;;;;;;21.60;80.00;;;;;;5020733;28;19913;-66
2022/11/18 07:50:39;;;;;;;;;;;21.60;79.80;;;;;;5018133;28;20045;-66
2022/11/18 07:53:05;;;;;;;;;;;21.40;80.50;;;;;;5021102;28;19909;-66
2022/11/18 07:55:32;;;;;;;;;;;21.40;81.20;;;;;;5018960;28;19928;-67
2022/11/18 07:57:58;;;;;;;;;;;21.30;80.80;;;;;;5004141;28;19913;-67
2022/11/18 08:00:25;;;;;;;;;;;21.10;82.10;;;;;;5019234;28;19909;-69
2022/11/18 08:02:52;;;;;;;;;;;21.00;82.10;;;;;;5022049;28;19991;-66
2022/11/18 08:05:18;;;;;;;;;;;21.00;82.50;;;;;;5021793;28;19909;-67
2022/11/18 08:07:46;;;;;;;;;;;20.90;83.60;;;;;;5016310;28;20372;-71
2022/11/18 08:10:12;;;;;;;;;;;20.70;83.00;;;;;;5036809;28;20255;-66
2022/11/18 08:12:39;;;;;;;;;;;20.60;83.50;;;;;;5019617;28;20559;-67
2022/11/18 08:15:06;;;;;;;;;;;20.60;83.70;;;;;;5021885;28;19909;-68
2022/11/18 08:17:33;;;;;;;;;;;20.50;84.20;;;;;;5019504;28;19913;-70
2022/11/18 08:19:59;;;;;;;;;;;20.40;84.20;;;;;;5022129;28;19959;-66
2022/11/18 08:22:26;;;;;;;;;;;20.40;84.70;;;;;;5018317;28;20066;-64
2022/11/18 08:24:53;;;;;;;;;;;20.30;85.00;;;;;;5015173;28;19913;-70
2022/11/18 08:27:20;;;;;;;;;;;20.30;85.00;;;;;;5018961;28;19925;-67
2022/11/18 08:29:46;;;;;;;;;;;20.30;85.00;;;;;;5017444;28;19909;-69
2022/11/18 08:32:13;;;;;;;;;;;20.30;85.70;;;;;;5012711;28;20563;-68
2022/11/18 08:34:40;;;;;;;;;;;20.30;85.60;;;;;;5023677;28;19939;-67
2022/11/18 08:37:06;;;;;;;;;;;20.20;86.20;;;;;;5017456;28;19971;-68
2022/11/18 08:39:33;;;;;;;;;;;20.10;86.50;;;;;;5014335;28;20030;-67
2022/11/18 08:41:59;;;;;;;;;;;19.90;87.00;;;;;;5020026;28;19917;-68
2022/11/18 08:44:26;;;;;;;;;;;19.80;87.00;;;;;;5019370;28;19913;-69
2022/11/18 08:46:53;;;;;;;;;;;19.50;88.00;;;;;;5017316;28;19921;-68
2022/11/18 08:49:19;;;;;;;;;;;19.30;89.10;;;;;;5001095;28;19920;-68
2022/11/18 08:51:46;;;;;;;;;;;19.20;89.20;;;;;;5017506;28;20317;-69
2022/11/18 08:54:13;;;;;;;;;;;19.00;90.10;;;;;;5019288;28;20069;-70
2022/11/18 08:56:39;;;;;;;;;;;18.90;90.40;;;;;;5014633;28;20293;-68
2022/11/18 08:59:07;;;;;;;;;;;18.90;90.80;;;;;;5012049;28;20183;-68
2022/11/18 09:01:35;;;;;;;;;;;18.90;91.10;;;;;;5016352;28;19913;-71
2022/11/18 09:04:02;;;;;;;;;;;18.90;91.20;;;;;;5018119;28;19913;-69
2022/11/18 09:06:29;;;;;;;;;;;19.10;91.40;;;;;;5018116;28;20334;-66
2022/11/18 09:08:56;;;;;;;;;;;19.10;91.60;;;;;;5007159;28;20032;-67
2022/11/18 09:11:26;;;;;;;;;;;19.00;91.50;;;;;;5020045;28;19909;-69
2022/11/18 09:13:54;;;;;;;;;;;18.90;91.80;;;;;;5032412;28;19921;-70
2022/11/18 09:16:22;;;;;;;;;;;18.70;92.50;;;;;;5019448;28;20370;-68
2022/11/18 09:18:49;;;;;;;;;;;18.60;92.90;;;;;;5002322;28;19963;-68
2022/11/18 09:21:17;;;;;;;;;;;18.50;93.20;;;;;;5018823;28;19913;-67
2022/11/18 09:23:44;;;;;;;;;;;18.40;93.70;;;;;;5008867;28;19957;-69
2022/11/18 09:26:12;;;;;;;;;;;18.40;94.00;;;;;;5019831;28;19917;-67
2022/11/18 09:28:39;;;;;;;;;;;18.40;94.20;;;;;;5015544;28;19920;-69
2022/11/18 09:31:10;;;;;;;;;;;18.40;94.10;;;;;;5010706;28;19917;-70
2022/11/18 09:33:36;;;;;;;;;;;18.40;94.20;;;;;;5018120;28;19909;-70
2022/11/18 09:36:04;;;;;;;;;;;18.30;94.10;;;;;;5016002;28;19925;-68
2022/11/18 09:38:31;;;;;;;;;;;18.20;94.50;;;;;;5018165;28;20400;-69
2022/11/18 09:41:05;;;;;;;;;;;18.10;94.50;;;;;;5015254;28;19967;-71
2022/11/18 09:43:49;;;;;;;;;;;18.20;94.50;;;;;;5012521;28;19921;-69
2022/11/18 09:46:22;;;;;;;;;;;18.20;94.60;;;;;;5012839;28;19960;-68
2022/11/18 09:51:37;;;;;;;;;;;18.30;94.80;;;;;;5017654;28;20008;-68
2022/11/18 09:54:03;;;;;;;;;;;18.30;94.90;;;;;;5015843;28;19917;-69
2022/11/18 09:56:30;;;;;;;;;;;18.20;95.10;;;;;;5014218;28;19956;-68
2022/11/18 09:58:57;;;;;;;;;;;18.20;95.20;;;;;;5015332;28;20318;-70
2022/11/18 10:01:23;;;;;;;;;;;18.20;95.10;;;;;;5013425;28;19968;-68
2022/11/18 10:03:50;;;;;;;;;;;18.20;95.30;;;;;;4997948;28;19952;-70
2022/11/18 10:06:28;;;;;;;;;;;18.20;95.50;;;;;;5013552;28;20062;-69
2022/11/18 10:09:05;;;;;;;;;;;18.10;95.70;;;;;;4997934;28;20404;-68
2022/11/18 10:11:37;;;;;;;;;;;18.20;96.00;;;;;;5017928;28;19964;-70
2022/11/18 10:14:19;;;;;;;;;;;18.00;96.20;;;;;;5015756;28;19917;-68
2022/11/18 10:16:49;;;;;;;;;;;18.10;96.40;;;;;;5015041;28;19984;-69
2022/11/18 10:19:15;;;;;;;;;;;18.00;96.60;;;;;;5016595;28;19917;-71
2022/11/18 10:21:45;;;;;;;;;;;17.90;96.80;;;;;;5017654;28;19932;-69
2022/11/18 10:24:23;;;;;;;;;;;17.90;97.10;;;;;;5017540;28;20362;-69
2022/11/18 10:26:57;;;;;;;;;;;17.80;97.30;;;;;;5031966;28;20420;-69
2022/11/18 10:29:24;;;;;;;;;;;17.90;97.20;;;;;;5017778;28;19921;-68
2022/11/18 10:31:54;;;;;;;;;;;18.00;97.30;;;;;;5017817;28;20007;-69
2022/11/18 10:34:20;;;;;;;;;;;18.00;97.30;;;;;;5021003;28;20077;-69
2022/11/18 10:37:07;;;;;;;;;;;17.90;97.60;;;;;;5015649;28;19964;-67
2022/11/18 10:39:46;;;;;;;;;;;17.90;97.90;;;;;;5019509;28;20396;-68
2022/11/18 10:42:16;;;;;;;;;;;17.80;97.90;;;;;;5027779;28;19921;-70
2022/11/18 10:44:43;;;;;;;;;;;17.80;98.10;;;;;;5021712;28;19917;-70
2022/11/18 10:47:22;;;;;;;;;;;17.80;98.50;;;;;;5021352;28;20027;-68
2022/11/18 10:49:48;;;;;;;;;;;17.80;98.50;;;;;;5013198;28;19956;-71
2022/11/18 10:52:15;;;;;;;;;;;17.80;98.60;;;;;;5022377;28;19921;-70
2022/11/18 10:54:42;;;;;;;;;;;17.80;98.60;;;;;;5020735;28;19917;-67
2022/11/18 10:57:20;;;;;;;;;;;17.90;99.00;;;;;;5002845;28;19909;-69
2022/11/18 10:59:51;;;;;;;;;;;17.80;99.30;;;;;;5020535;28;19998;-68
2022/11/18 11:02:30;;;;;;;;;;;17.80;99.40;;;;;;5021648;28;19917;-69
2022/11/18 11:04:57;;;;;;;;;;;17.70;99.60;;;;;;5020288;28;19913;-70
2022/11/18 11:07:31;;;;;;;;;;;17.70;99.60;;;;;;5019655;28;19921;-71
2022/11/18 11:10:06;;;;;;;;;;;17.70;99.90;;;;;;5018373;28;19913;-70
2022/11/18 11:12:36;;;;;;;;;;;17.70;99.90;;;;;;5021405;28;19913;-70
2022/11/18 11:15:05;;;;;;;;;;;17.70;99.90;;;;;;5020060;28;20369;-69
2022/11/18 11:18:40;;;;;;;;;;;17.70;99.90;;;;;;5021591;28;19940;-68
2022/11/18 11:20:40;;;;;;;;;;;17.70;99.90;;;;;;5018898;28;20345;-68
2022/11/18 11:23:09;;;;;;;;;;;17.70;99.90;;;;;;5017811;28;19913;-69
2022/11/18 11:26:00;;;;;;;;;;;17.60;99.90;;;;;;5020925;28;19921;-69
2022/11/18 11:28:45;;;;;;;;;;;17.70;99.90;;;;;;5020485;28;19979;-69
2022/11/18 11:31:23;;;;;;;;;;;17.50;99.90;;;;;;5017238;28;19990;-70
2022/11/18 11:34:02;;;;;;;;;;;17.50;99.90;;;;;;5018985;28;20051;-68
2022/11/18 11:36:55;;;;;;;;;;;17.40;99.90;;;;;;5021572;28;19945;-71
2022/11/18 11:39:25;;;;;;;;;;;17.30;99.90;;;;;;5020959;28;19913;-68
2022/11/18 11:41:51;;;;;;;;;;;17.30;99.90;;;;;;5021520;28;19948;-70
2022/11/18 11:44:36;;;;;;;;;;;17.30;99.90;;;;;;5018851;28;20008;-69
2022/11/18 11:50:18;;;;;;;;;;;17.30;99.90;;;;;;5019238;28;19920;-67
2022/11/18 11:52:51;;;;;;;;;;;17.30;99.90;;;;;;5018313;28;20504;-68
2022/11/18 11:55:46;;;;;;;;;;;17.30;99.90;;;;;;5014540;28;19939;-67
2022/11/18 11:58:18;;;;;;;;;;;17.30;99.90;;;;;;5005888;28;20348;-68
2022/11/18 12:00:49;;;;;;;;;;;17.30;99.90;;;;;;5014987;28;19917;-68
2022/11/18 12:03:29;;;;;;;;;;;17.20;99.90;;;;;;5010045;28;19909;-68
2022/11/18 12:05:55;;;;;;;;;;;17.20;99.90;;;;;;5018961;28;19918;-68
2022/11/18 12:08:23;;;;;;;;;;;17.10;99.90;;;;;;5016945;28;19913;-70
2022/11/18 12:10:53;;;;;;;;;;;17.10;99.90;;;;;;5032964;28;20384;-68
2022/11/18 12:13:32;;;;;;;;;;;17.00;99.90;;;;;;5038073;28;19961;-69
2022/11/18 12:15:58;;;;;;;;;;;17.00;99.90;;;;;;5012823;28;19920;-70
2022/11/18 12:18:43;;;;;;;;;;;16.90;99.90;;;;;;5020350;28;19955;-67
2022/11/18 12:21:30;;;;;;;;;;;16.90;99.90;;;;;;5018609;28;19988;-69
2022/11/18 12:24:14;;;;;;;;;;;16.90;99.90;;;;;;5001448;28;20309;-70
2022/11/18 12:26:42;;;;;;;;;;;17.00;99.90;;;;;;5018957;28;19976;-70
2022/11/18 12:29:18;;;;;;;;;;;16.90;99.90;;;;;;5000608;28;20596;-69
2022/11/18 12:31:49;;;;;;;;;;;16.90;99.90;;;;;;5017474;28;19920;-71
2022/11/18 12:34:25;;;;;;;;;;;16.90;99.90;;;;;;5018288;28;19909;-69
2022/11/18 12:36:53;;;;;;;;;;;16.80;99.90;;;;;;5019972;28;19913;-70
2022/11/18 12:39:23;;;;;;;;;;;16.90;99.90;;;;;;5018072;28;19915;-71
2022/11/18 12:44:48;;;;;;;;;;;16.80;99.90;;;;;;5019732;28;20100;-70
2022/11/18 12:47:35;;;;;;;;;;;16.70;99.90;;;;;;5017588;28;19967;-69
2022/11/18 12:50:02;;;;;;;;;;;16.70;99.90;;;;;;5020995;28;19983;-72
2022/11/18 12:52:29;;;;;;;;;;;16.60;99.90;;;;;;5019868;28;20617;-69
2022/11/18 12:55:03;;;;;;;;;;;16.70;99.90;;;;;;5021131;28;19920;-69
2022/11/18 12:57:33;;;;;;;;;;;16.60;99.90;;;;;;5001836;28;19917;-69
2022/11/18 13:00:16;;;;;;;;;;;16.50;99.90;;;;;;5021524;28;19909;-69
2022/11/18 13:02:53;;;;;;;;;;;16.50;99.90;;;;;;5001016;28;20012;-69
2022/11/18 13:05:24;;;;;;;;;;;16.50;99.90;;;;;;4999152;28;19956;-72
2022/11/18 13:10:50;;;;;;;;;;;16.50;99.90;;;;;;5021273;28;19920;-70
2022/11/18 13:13:20;;;;;;;;;;;16.40;99.90;;;;;;5000965;28;19916;-69
2022/11/18 13:18:31;;;;;;;;;;;16.40;99.90;;;;;;5018789;28;20667;-69
2022/11/18 13:23:50;;;;;;;;;;;16.40;99.90;;;;;;5020780;28;19976;-71
2022/11/18 13:23:51;;;;;;;;;;;16.30;99.90;;;;;;5019865;28;19963;-70
2022/11/18 13:26:32;;;;;;;;;;;16.30;99.90;;;;;;5017480;28;19928;-68
2022/11/18 13:29:05;;;;;;;;;;;16.30;99.90;;;;;;5020959;28;19917;-69
2022/11/18 13:31:37;;;;;;;;;;;16.20;99.90;;;;;;5017932;28;19909;-68
2022/11/18 13:34:30;;;;;;;;;;;16.20;99.90;;;;;;5021658;28;19909;-68
2022/11/18 13:36:58;;;;;;;;;;;16.10;99.90;;;;;;5019393;28;19910;-68
2022/11/18 13:39:25;;;;;;;;;;;16.20;99.90;;;;;;5017831;28;19913;-69
2022/11/18 13:41:59;;;;;;;;;;;16.10;99.90;;;;;;5020178;28;19921;-68
2022/11/18 13:44:27;;;;;;;;;;;16.20;99.90;;;;;;5017703;28;19913;-69
2022/11/18 13:46:57;;;;;;;;;;;16.10;99.90;;;;;;5002877;28;20365;-68
2022/11/18 13:49:31;;;;;;;;;;;16.10;99.90;;;;;;5000158;28;19916;-69
2022/11/18 13:51:57;;;;;;;;;;;16.10;99.90;;;;;;5020404;28;19917;-69
2022/11/18 13:54:26;;;;;;;;;;;16.00;99.90;;;;;;5018050;28;19915;-70
2022/11/18 13:56:52;;;;;;;;;;;16.10;99.90;;;;;;5020138;28;19932;-69
2022/11/18 13:59:21;;;;;;;;;;;16.00;99.90;;;;;;5018120;28;20374;-72
2022/11/18 14:01:59;;;;;;;;;;;16.00;99.90;;;;;;5020349;28;20003;-70
2022/11/18 14:04:27;;;;;;;;;;;16.00;99.90;;;;;;5017697;28;20255;-69
2022/11/18 14:07:14;;;;;;;;;;;16.00;99.90;;;;;;5019743;28;20321;-69
2022/11/18 14:09:51;;;;;;;;;;;16.00;99.90;;;;;;5017761;28;19913;-68
2022/11/18 14:12:18;;;;;;;;;;;16.00;99.90;;;;;;5019338;28;19909;-69
2022/11/18 14:14:46;;;;;;;;;;;15.90;99.90;;;;;;5018324;28;20429;-69
2022/11/18 14:17:12;;;;;;;;;;;15.90;99.90;;;;;;5019955;28;19925;-71
2022/11/18 14:19:39;;;;;;;;;;;15.90;99.90;;;;;;5017016;28;20306;-71
2022/11/18 14:22:11;;;;;;;;;;;15.90;99.90;;;;;;5020163;28;19972;-69
2022/11/18 14:24:37;;;;;;;;;;;15.80;99.90;;;;;;5017559;28;19909;-69
2022/11/18 14:27:22;;;;;;;;;;;15.80;99.90;;;;;;5020026;28;19924;-70
2022/11/18 14:29:49;;;;;;;;;;;15.80;99.90;;;;;;5019429;28;19910;-68
2022/11/18 14:32:16;;;;;;;;;;;15.70;99.90;;;;;;5019887;28;19913;-69
2022/11/18 14:34:42;;;;;;;;;;;15.80;99.90;;;;;;5017338;28;19913;-69
2022/11/18 14:37:11;;;;;;;;;;;15.70;99.90;;;;;;5019775;28;19920;-69
2022/11/18 14:39:38;;;;;;;;;;;15.70;99.90;;;;;;5016999;28;19909;-70
2022/11/18 14:42:05;;;;;;;;;;;15.60;99.90;;;;;;5020227;28;19913;-69
2022/11/18 14:44:32;;;;;;;;;;;15.60;99.90;;;;;;5017929;28;20000;-68
2022/11/18 14:47:01;;;;;;;;;;;15.60;99.90;;;;;;5019532;28;19917;-69
2022/11/18 14:49:30;;;;;;;;;;;15.60;99.90;;;;;;5017921;28;19921;-72
2022/11/18 14:51:57;;;;;;;;;;;15.60;99.90;;;;;;5019286;28;20019;-71
2022/11/18 14:54:25;;;;;;;;;;;15.60;99.90;;;;;;5020484;28;20354;-70
2022/11/18 14:56:53;;;;;;;;;;;15.60;99.90;;;;;;5018726;28;19929;-68
2022/11/18 14:59:20;;;;;;;;;;;15.50;99.90;;;;;;5019288;28;19913;-70
2022/11/18 15:01:47;;;;;;;;;;;15.50;99.90;;;;;;4999251;28;19914;-69